Time;durP1;ratioP1;P1;durP2;ratioP2;P2;SDS_P1;SDS_P2;PMS_P1;PMS_P2;Temp;Humidity;BMP_temperature;BMP_pressure;BME280_temperature;BME280_humidity;BME280_pressure;Samples;Min_cycle;Max_cycle;Signal;HPM_P1;HPM_P2
2023/10/12 10:51:29;;;;;;;16.20;3.63;;;;;;;-145.67;100.00;66521.78;5614496;22;20403;-91
2023/10/12 10:53:58;;;;;;;15.65;4.13;;;;;;;-145.67;100.00;66521.78;5045206;28;20042;-91
2023/10/12 10:56:35;;;;;;;15.38;4.03;;;;;;;-145.67;100.00;66521.78;5043244;28;20025;-93
2023/10/12 10:59:02;;;;;;;20.70;4.53;;;;;;;-145.67;100.00;66521.78;5061187;28;20021;-90
2023/10/12 11:01:28;;;;;;;15.63;3.97;;;;;;;-145.67;100.00;66521.78;5043670;28;20024;-91
2023/10/12 11:04:03;;;;;;;12.30;3.75;;;;;;;-145.67;100.00;66521.78;5043798;28;20029;-92
2023/10/12 11:06:36;;;;;;;14.23;3.67;;;;;;;-145.67;100.00;66521.78;5046023;28;20031;-92
2023/10/12 11:09:08;;;;;;;13.52;3.90;;;;;;;-145.67;100.00;66521.78;5046198;28;20033;-91
2023/10/12 14:06:15;;;;;;;;;;;;;;;-145.67;100.00;66521.78;6195539;22;20127;-93
2023/10/12 14:08:42;;;;;;;16.20;7.78;;;;;;;-145.67;100.00;66521.78;5062911;28;19931;-91
2023/10/12 14:11:39;;;;;;;18.77;7.57;;;;;;;-145.67;100.00;66521.78;5054819;28;20037;-93
2023/10/12 14:14:09;;;;;;;15.15;6.60;;;;;;;-145.67;100.00;66521.78;5061867;28;20062;-93
2023/10/12 14:16:52;;;;;;;14.40;7.38;;;;;;;-145.67;100.00;66521.78;5046998;28;20064;-93
2023/10/12 14:20:03;;;;;;;17.52;6.95;;;;;;;-145.67;100.00;66521.78;5065682;28;20034;-94
2023/10/12 14:48:17;;;;;;;15.55;7.88;;;;;;;-145.67;100.00;66521.78;5706443;22;20040;-92
2023/10/12 15:06:14;;;;;;;15.70;8.98;;;;;;;-145.67;100.00;66521.78;5253924;22;20041;-89
2023/10/12 15:08:41;;;;;;;16.25;9.55;;;;;;;-145.67;100.00;66521.78;5074810;28;20055;-91
2023/10/12 15:11:06;;;;;;;16.40;8.90;;;;;;;-145.67;100.00;66521.78;5091004;28;20050;-91
2023/10/12 16:24:28;;;;;;;23.92;15.90;;;;;;;-145.67;100.00;66521.78;5055307;28;20060;-93
2023/10/12 16:26:54;;;;;;;21.98;15.95;;;;;;;-145.67;100.00;66521.78;5040120;28;20437;-91
2023/10/12 16:29:20;;;;;;;29.88;16.90;;;;;;;-145.67;100.00;66521.78;5038981;28;20074;-92
2023/10/12 16:31:46;;;;;;;28.27;18.00;;;;;;;-145.67;100.00;66521.78;5034964;28;20021;-91
2023/10/12 16:34:12;;;;;;;27.88;18.88;;;;;;;-145.67;100.00;66521.78;5021810;28;20437;-90
2023/10/12 16:36:38;;;;;;;30.55;17.85;;;;;;;-145.67;100.00;66521.78;5036133;28;20028;-90
2023/10/12 16:39:06;;;;;;;28.42;17.38;;;;;;;-145.67;100.00;66521.78;5056930;28;20490;-91
2023/10/12 16:41:33;;;;;;;26.95;16.27;;;;;;;-145.67;100.00;66521.78;5039224;28;20025;-91
2023/10/12 16:43:59;;;;;;;28.27;16.73;;;;;;;-145.67;100.00;66521.78;5023145;28;20032;-92
2023/10/12 16:46:25;;;;;;;33.08;19.25;;;;;;;-145.67;100.00;66521.78;5021811;28;20086;-90
2023/10/12 16:48:51;;;;;;;27.38;17.70;;;;;;;-145.67;100.00;66521.78;5039080;28;20029;-91
2023/10/12 16:51:17;;;;;;;28.10;19.20;;;;;;;-145.67;100.00;66521.78;5022682;28;20475;-91
2023/10/12 16:53:43;;;;;;;26.33;17.23;;;;;;;-145.67;100.00;66521.78;5025900;28;20056;-91
2023/10/12 16:56:16;;;;;;;26.58;15.90;;;;;;;-145.67;100.00;66521.78;5031128;28;20021;-91
2023/10/12 16:58:42;;;;;;;24.90;15.35;;;;;;;-145.67;100.00;66521.78;5027029;28;20513;-91
2023/10/12 17:01:09;;;;;;;23.70;14.23;;;;;;;-145.67;100.00;66521.78;5039721;28;20059;-91
2023/10/12 17:03:40;;;;;;;27.42;13.55;;;;;;;-145.67;100.00;66521.78;5022942;28;20029;-91
2023/10/12 17:06:06;;;;;;;25.27;15.07;;;;;;;-145.67;100.00;66521.78;5030674;28;20024;-91
2023/10/12 17:08:33;;;;;;;24.48;16.10;;;;;;;-145.67;100.00;66521.78;5060235;28;20040;-91
2023/10/12 17:11:05;;;;;;;29.65;20.10;;;;;;;-145.67;100.00;66521.78;5058815;28;20027;-90
2023/10/12 17:13:32;;;;;;;36.83;23.42;;;;;;;-145.67;100.00;66521.78;5059149;28;20065;-92
2023/10/12 17:16:00;;;;;;;35.80;24.40;;;;;;;-145.67;100.00;66521.78;5036960;28;20096;-92
2023/10/12 17:18:26;;;;;;;39.70;26.45;;;;;;;-145.67;100.00;66521.78;5042550;28;20020;-92
2023/10/12 17:20:52;;;;;;;34.53;20.05;;;;;;;-145.67;100.00;66521.78;5024307;28;20037;-91
2023/10/12 17:23:27;;;;;;;33.78;20.17;;;;;;;-145.67;100.00;66521.78;5024344;28;20029;-92
2023/10/12 17:25:58;;;;;;;32.13;18.42;;;;;;;-145.67;100.00;66521.78;5007527;28;20041;-92
2023/10/12 17:28:27;;;;;;;26.27;16.92;;;;;;;-145.67;100.00;66521.78;5039276;28;20025;-93
2023/10/12 17:31:11;;;;;;;27.05;17.77;;;;;;;-145.67;100.00;66521.78;5023879;28;20024;-94
2023/10/12 17:33:38;;;;;;;27.40;17.45;;;;;;;-145.67;100.00;66521.78;5043308;28;20021;-91
2023/10/12 17:36:11;;;;;;;29.75;18.33;;;;;;;-145.67;100.00;66521.78;5040327;28;20093;-93
2023/10/12 17:38:38;;;;;;;31.65;18.50;;;;;;;-145.67;100.00;66521.78;5024591;28;20017;-93
2023/10/12 17:41:04;;;;;;;32.22;20.05;;;;;;;-145.67;100.00;66521.78;5033221;28;20029;-91
2023/10/12 17:43:30;;;;;;;34.47;20.15;;;;;;;-145.67;100.00;66521.78;5051827;28;20032;-91
2023/10/12 17:45:56;;;;;;;37.28;20.83;;;;;;;-145.67;100.00;66521.78;5075357;28;20005;-92
2023/10/12 17:48:22;;;;;;;39.85;22.25;;;;;;;-145.67;100.00;66521.78;5074001;28;20013;-91
2023/10/12 17:50:49;;;;;;;44.75;23.35;;;;;;;-145.67;100.00;66521.78;5039324;28;20063;-92
2023/10/12 17:53:15;;;;;;;47.30;26.27;;;;;;;-145.67;100.00;66521.78;5027191;28;20049;-93
2023/10/12 17:55:59;;;;;;;51.03;29.70;;;;;;;-145.67;100.00;66521.78;5040772;28;20021;-95
2023/10/12 17:58:24;;;;;;;55.25;32.63;;;;;;;-145.67;100.00;66521.78;5024726;28;20028;-93
2023/10/12 18:00:50;;;;;;;53.28;32.47;;;;;;;-145.67;100.00;66521.78;5046131;28;20029;-92
2023/10/12 18:03:16;;;;;;;56.33;31.45;;;;;;;-145.67;100.00;66521.78;5028713;28;20043;-93
2023/10/12 18:05:43;;;;;;;47.45;26.42;;;;;;;-145.67;100.00;66521.78;5029687;28;20032;-94
2023/10/12 18:08:10;;;;;;;44.70;25.02;;;;;;;-145.67;100.00;66521.78;5029074;28;20032;-92
2023/10/12 18:10:43;;;;;;;44.28;23.13;;;;;;;-145.67;100.00;66521.78;5046651;28;20065;-93
2023/10/12 18:13:19;;;;;;;;;;;;;;;;;;;;;
2023/10/12 18:15:54;;;;;;;49.80;22.42;;;;;;;-145.67;100.00;66521.78;5044834;28;20033;-93
2023/10/12 18:18:26;;;;;;;;;;;;;;;-145.67;100.00;66521.78;5029431;28;20124;-92
2023/10/12 18:23:44;;;;;;;40.75;21.10;;;;;;;-145.67;100.00;66521.78;5020794;28;20033;-93
2023/10/12 18:26:29;;;;;;;44.20;22.27;;;;;;;-145.67;100.00;66521.78;5023648;28;20455;-95
2023/10/12 18:28:55;;;;;;;50.15;23.02;;;;;;;-145.67;100.00;66521.78;5028168;28;20536;-93
2023/10/12 18:31:21;;;;;;;44.85;22.98;;;;;;;-145.67;100.00;66521.78;5043245;28;20116;-93
2023/10/12 18:33:50;;;;;;;41.47;23.58;;;;;;;-145.67;100.00;66521.78;5044885;28;20043;-93
2023/10/12 18:36:16;;;;;;;45.53;22.73;;;;;;;-145.67;100.00;66521.78;5059906;28;20024;-90
2023/10/12 18:38:44;;;;;;;43.70;23.10;;;;;;;-145.67;100.00;66521.78;5055301;28;20048;-93
2023/10/12 18:41:21;;;;;;;46.20;25.73;;;;;;;-145.67;100.00;66521.78;5057028;28;20051;-91
2023/10/12 18:43:50;;;;;;;45.42;24.35;;;;;;;-145.67;100.00;66521.78;5051100;28;20463;-91
2023/10/12 18:46:20;;;;;;;44.33;24.85;;;;;;;-145.67;100.00;66521.78;5025090;28;20460;-92
2023/10/12 18:48:46;;;;;;;46.67;24.75;;;;;;;-145.67;100.00;66521.78;5041614;28;20032;-92
2023/10/12 18:51:14;;;;;;;50.00;25.98;;;;;;;-145.67;100.00;66521.78;5027189;28;20021;-92
2023/10/12 18:53:44;;;;;;;48.92;25.08;;;;;;;-145.67;100.00;66521.78;5042434;28;20029;-93
2023/10/12 18:56:11;;;;;;;48.85;24.77;;;;;;;-145.67;100.00;66521.78;5043434;28;20029;-93
2023/10/12 18:58:40;;;;;;;52.80;26.55;;;;;;;-145.67;100.00;66521.78;5026218;28;20048;-92
2023/10/12 19:01:12;;;;;;;51.03;24.95;;;;;;;-145.67;100.00;66521.78;5042332;28;20059;-93
2023/10/12 19:03:39;;;;;;;47.28;25.63;;;;;;;-145.67;100.00;66521.78;5026420;28;20033;-93
2023/10/12 19:06:10;;;;;;;54.53;26.25;;;;;;;-145.67;100.00;66521.78;5042351;28;20040;-93
2023/10/12 19:08:46;;;;;;;52.83;27.70;;;;;;;-145.67;100.00;66521.78;5041452;28;20033;-91
2023/10/12 19:11:14;;;;;;;57.05;28.02;;;;;;;-145.67;100.00;66521.78;5043036;28;20025;-92
2023/10/12 19:13:43;;;;;;;56.08;28.00;;;;;;;-145.67;100.00;66521.78;5042507;28;20058;-92
2023/10/12 19:16:14;;;;;;;57.03;27.67;;;;;;;-145.67;100.00;66521.78;5026266;28;20120;-93
2023/10/12 19:18:40;;;;;;;54.38;28.08;;;;;;;-145.67;100.00;66521.78;5041650;28;20025;-94
2023/10/12 19:21:06;;;;;;;53.67;29.00;;;;;;;-145.67;100.00;66521.78;5042562;28;20025;-93
2023/10/12 19:23:31;;;;;;;75.28;39.78;;;;;;;-145.67;100.00;66521.78;5026136;28;20029;-90
2023/10/12 19:26:05;;;;;;;86.50;44.10;;;;;;;-145.67;100.00;66521.78;5028012;28;20037;-91
2023/10/12 19:28:34;;;;;;;85.75;43.15;;;;;;;-145.67;100.00;66521.78;5043582;28;20066;-93
2023/10/12 19:31:14;;;;;;;101.32;52.15;;;;;;;-145.67;100.00;66521.78;5046160;28;20029;-93
2023/10/12 19:33:46;;;;;;;121.75;60.15;;;;;;;-145.67;100.00;66521.78;5027949;28;20069;-94
2023/10/12 19:36:21;;;;;;;131.65;63.78;;;;;;;-145.67;100.00;66521.78;5044861;28;20050;-92
2023/10/12 19:38:48;;;;;;;127.90;63.45;;;;;;;-145.67;100.00;66521.78;5043791;28;20075;-92
2023/10/12 19:41:18;;;;;;;99.38;53.67;;;;;;;-145.67;100.00;66521.78;5043979;28;20036;-91
2023/10/12 19:43:46;;;;;;;91.53;47.55;;;;;;;-145.67;100.00;66521.78;5061478;28;20039;-93
2023/10/12 19:46:14;;;;;;;77.38;43.58;;;;;;;-145.67;100.00;66521.78;5043961;28;20039;-91
2023/10/12 19:48:40;;;;;;;83.20;49.00;;;;;;;-145.67;100.00;66521.78;5043316;28;20025;-93
2023/10/12 19:51:12;;;;;;;61.40;40.42;;;;;;;-145.67;100.00;66521.78;5027057;28;20112;-91
2023/10/12 19:53:39;;;;;;;;;;;;;;;-145.67;100.00;66521.78;5044560;28;20021;-92
2023/10/12 19:56:18;;;;;;;48.25;29.90;;;;;;;-145.67;100.00;66521.78;5049105;28;19916;-92
2023/10/12 19:58:47;;;;;;;35.42;19.08;;;;;;;-145.67;100.00;66521.78;5028344;28;20024;-91
2023/10/12 20:01:20;;;;;;;23.73;11.75;;;;;;;-145.67;100.00;66521.78;5045453;28;20032;-92
2023/10/12 20:03:55;;;;;;;22.60;10.55;;;;;;;-145.67;100.00;66521.78;5045613;28;20025;-93
2023/10/12 20:06:22;;;;;;;25.90;6.07;;;;;;;-145.67;100.00;66521.78;5045717;28;20531;-93
2023/10/12 20:08:48;;;;;;;25.92;4.78;;;;;;;-145.67;100.00;66521.78;5043422;28;20594;-93
2023/10/12 20:11:15;;;;;;;20.23;4.57;;;;;;;-145.67;100.00;66521.78;5027439;28;20041;-92
2023/10/12 20:13:50;;;;;;;15.63;3.50;;;;;;;-145.67;100.00;66521.78;5025786;28;20032;-93
2023/10/12 20:16:23;;;;;;;19.25;3.85;;;;;;;-145.67;100.00;66521.78;5028445;28;20081;-92
2023/10/12 20:18:57;;;;;;;20.52;4.10;;;;;;;-145.67;100.00;66521.78;5044118;28;20116;-92
2023/10/12 20:21:23;;;;;;;22.20;4.50;;;;;;;-145.67;100.00;66521.78;5028064;28;20029;-91
2023/10/12 20:23:49;;;;;;;25.38;4.03;;;;;;;-145.67;100.00;66521.78;5050014;28;20021;-90
2023/10/12 20:26:17;;;;;;;20.70;4.43;;;;;;;-145.67;100.00;66521.78;5056583;28;20028;-90
2023/10/12 20:28:42;;;;;;;18.88;3.97;;;;;;;-145.67;100.00;66521.78;5042960;28;20048;-91
2023/10/12 20:31:11;;;;;;;25.92;4.72;;;;;;;-145.67;100.00;66521.78;5054550;28;20024;-92
2023/10/12 20:33:39;;;;;;;21.63;4.00;;;;;;;-145.67;100.00;66521.78;5035970;28;20031;-92
2023/10/12 20:36:05;;;;;;;22.38;3.80;;;;;;;-145.67;100.00;66521.78;5052171;28;20021;-91
2023/10/12 20:38:32;;;;;;;13.05;2.97;;;;;;;-145.67;100.00;66521.78;5034042;28;20104;-92
2023/10/12 20:40:59;;;;;;;16.33;3.38;;;;;;;-145.67;100.00;66521.78;5051867;28;20029;-91
2023/10/12 20:43:25;;;;;;;13.48;3.38;;;;;;;-145.67;100.00;66521.78;5068786;28;20471;-93
2023/10/12 20:45:57;;;;;;;16.83;3.28;;;;;;;-145.67;100.00;66521.78;5052895;28;20051;-92
2023/10/12 20:48:26;;;;;;;19.92;4.00;;;;;;;-145.67;100.00;66521.78;5035385;28;20093;-92
2023/10/12 20:51:04;;;;;;;18.17;3.55;;;;;;;-145.67;100.00;66521.78;5056464;28;20025;-93
2023/10/12 20:53:31;;;;;;;20.98;4.55;;;;;;;-145.67;100.00;66521.78;5061776;28;20025;-92
2023/10/12 20:55:57;;;;;;;17.17;3.70;;;;;;;-145.67;100.00;66521.78;5061188;28;20033;-93
2023/10/12 20:58:25;;;;;;;17.77;3.78;;;;;;;-145.67;100.00;66521.78;5038368;28;20451;-92
2023/10/12 21:00:57;;;;;;;19.60;3.60;;;;;;;-145.67;100.00;66521.78;5049808;28;20020;-92
2023/10/12 21:03:36;;;;;;;25.05;4.78;;;;;;;-145.67;100.00;66521.78;5058287;28;20048;-93
2023/10/12 21:06:19;;;;;;;30.33;5.70;;;;;;;-145.67;100.00;66521.78;5044697;28;20037;-92
2023/10/12 21:08:49;;;;;;;25.88;5.13;;;;;;;-145.67;100.00;66521.78;5044238;28;20055;-93
2023/10/12 21:11:33;;;;;;;31.00;5.57;;;;;;;-145.67;100.00;66521.78;5060124;28;20025;-93
2023/10/12 21:14:06;;;;;;;28.05;5.82;;;;;;;-145.67;100.00;66521.78;5058627;28;20028;-93
2023/10/12 21:16:38;;;;;;;37.63;5.88;;;;;;;-145.67;100.00;66521.78;5042053;28;20092;-93
2023/10/12 21:19:19;;;;;;;23.02;4.60;;;;;;;-145.67;100.00;66521.78;5056135;28;20102;-92
2023/10/12 21:21:45;;;;;;;30.63;4.60;;;;;;;-145.67;100.00;66521.78;5053908;28;20082;-93
2023/10/12 21:24:20;;;;;;;19.92;3.83;;;;;;;-145.67;100.00;66521.78;5033702;28;20383;-93
2023/10/12 21:26:50;;;;;;;23.52;4.22;;;;;;;-145.67;100.00;66521.78;5052528;28;20025;-92
2023/10/12 21:29:21;;;;;;;19.50;4.15;;;;;;;-145.67;100.00;66521.78;5054818;28;20119;-93
2023/10/12 21:31:57;;;;;;;29.60;5.15;;;;;;;-145.67;100.00;66521.78;5044459;28;20015;-93
2023/10/12 21:34:25;;;;;;;26.70;4.05;;;;;;;-145.67;100.00;66521.78;5045374;28;20013;-92
